Terminal Aerodrome Forecast
Issued by NWS

Home | Current Version | Previous Version | Text Only | Print | Product List | Glossary On
Versions: 1 2 3 4 5 6 7 8 9 10 11 12 13 14 15 16 17 18 19 20 21 22 23 24 25 26 27 28 29 30 31 32 33 34 35 36 37 38 39 40 41 42 43 44 45 46 47 48 49 50
000
FTUS45 KBOU 271122
TAFBJC
TAF
KBJC 271122Z 2712/2812 33008KT P6SM VCSH SCT060 BKN080 OVC120
     FM271400 29010KT P6SM SCT040 BKN070
      TEMPO 2715/2719 -SHRA SCT025 OVC040
     FM271900 33013G21KT P6SM SCT070 BKN100
     FM280100 33008KT P6SM SCT060 BKN100
     FM280500 25008KT P6SM SCT100 BKN140=

USA.gov is the U.S. government's official web portal to all federal, state and local government web resources and services.